sensor_id;sensor_type;location;lat;lon;timestamp;pressure;altitude;pressure_sealevel;temperature;humidity
60646;BME280;46462;32.608;-117.032;2023-04-19T00:01:24;99260.02;;;26.00;35.85
60646;BME280;46462;32.608;-117.032;2023-04-19T00:03:55;99258.44;;;26.06;35.80
60646;BME280;46462;32.608;-117.032;2023-04-19T00:06:25;99263.83;;;26.01;35.85
60646;BME280;46462;32.608;-117.032;2023-04-19T00:08:56;99261.51;;;26.07;35.74
60646;BME280;46462;32.608;-117.032;2023-04-19T00:11:26;99254.03;;;26.06;35.76
60646;BME280;46462;32.608;-117.032;2023-04-19T00:13:57;99254.48;;;26.09;35.76
60646;BME280;46462;32.608;-117.032;2023-04-19T00:16:28;99255.95;;;26.08;35.79
60646;BME280;46462;32.608;-117.032;2023-04-19T00:18:58;99261.37;;;26.06;35.80
60646;BME280;46462;32.608;-117.032;2023-04-19T00:21:29;99265.61;;;26.04;35.84
60646;BME280;46462;32.608;-117.032;2023-04-19T00:24:01;99264.62;;;26.15;35.70
60646;BME280;46462;32.608;-117.032;2023-04-19T00:26:30;99260.27;;;26.13;35.82
60646;BME280;46462;32.608;-117.032;2023-04-19T00:29:01;99261.58;;;26.14;35.88
60646;BME280;46462;32.608;-117.032;2023-04-19T00:31:32;99262.46;;;26.16;35.83
60646;BME280;46462;32.608;-117.032;2023-04-19T00:34:03;99268.95;;;26.20;35.79
60646;BME280;46462;32.608;-117.032;2023-04-19T00:36:33;99273.46;;;26.21;35.82
60646;BME280;46462;32.608;-117.032;2023-04-19T00:39:04;99275.13;;;26.21;35.88
60646;BME280;46462;32.608;-117.032;2023-04-19T00:41:35;99276.41;;;26.20;35.95
60646;BME280;46462;32.608;-117.032;2023-04-19T00:44:05;99280.33;;;26.21;35.97
60646;BME280;46462;32.608;-117.032;2023-04-19T00:46:37;99282.54;;;26.26;35.91
60646;BME280;46462;32.608;-117.032;2023-04-19T00:49:07;99287.50;;;26.28;35.88
60646;BME280;46462;32.608;-117.032;2023-04-19T00:51:38;99288.69;;;26.33;35.81
60646;BME280;46462;32.608;-117.032;2023-04-19T00:54:08;99285.87;;;26.34;35.84
60646;BME280;46462;32.608;-117.032;2023-04-19T00:56:39;99286.71;;;26.38;35.82
60646;BME280;46462;32.608;-117.032;2023-04-19T00:59:09;99288.99;;;26.35;35.92
60646;BME280;46462;32.608;-117.032;2023-04-19T01:01:40;99285.92;;;26.37;35.93
60646;BME280;46462;32.608;-117.032;2023-04-19T01:04:11;99284.79;;;26.32;36.03
60646;BME280;46462;32.608;-117.032;2023-04-19T01:06:42;99288.90;;;26.36;35.99
60646;BME280;46462;32.608;-117.032;2023-04-19T01:09:12;99293.65;;;26.40;35.95
60646;BME280;46462;32.608;-117.032;2023-04-19T01:11:43;99296.82;;;26.46;35.85
60646;BME280;46462;32.608;-117.032;2023-04-19T01:14:13;99299.12;;;26.45;35.87
60646;BME280;46462;32.608;-117.032;2023-04-19T01:16:44;99297.69;;;26.48;35.86
60646;BME280;46462;32.608;-117.032;2023-04-19T01:19:15;99295.88;;;26.53;35.73
60646;BME280;46462;32.608;-117.032;2023-04-19T01:21:45;99298.45;;;26.48;35.87
60646;BME280;46462;32.608;-117.032;2023-04-19T01:24:16;99301.43;;;26.45;35.94
60646;BME280;46462;32.608;-117.032;2023-04-19T01:26:47;99304.25;;;26.49;35.88
60646;BME280;46462;32.608;-117.032;2023-04-19T01:29:17;99303.72;;;26.50;35.88
60646;BME280;46462;32.608;-117.032;2023-04-19T01:31:48;99307.57;;;26.49;35.97
60646;BME280;46462;32.608;-117.032;2023-04-19T01:34:19;99311.08;;;26.49;35.99
60646;BME280;46462;32.608;-117.032;2023-04-19T01:36:50;99311.06;;;26.50;35.96
60646;BME280;46462;32.608;-117.032;2023-04-19T01:39:21;99312.77;;;26.50;35.95
60646;BME280;46462;32.608;-117.032;2023-04-19T01:41:51;99313.73;;;26.51;35.95
60646;BME280;46462;32.608;-117.032;2023-04-19T01:44:22;99312.49;;;26.54;35.95
60646;BME280;46462;32.608;-117.032;2023-04-19T01:46:52;99315.15;;;26.58;35.90
60646;BME280;46462;32.608;-117.032;2023-04-19T01:49:23;99319.86;;;26.57;35.89
60646;BME280;46462;32.608;-117.032;2023-04-19T01:51:54;99318.23;;;26.61;35.85
60646;BME280;46462;32.608;-117.032;2023-04-19T01:54:24;99319.48;;;26.63;35.84
60646;BME280;46462;32.608;-117.032;2023-04-19T01:56:55;99322.39;;;26.64;35.85
60646;BME280;46462;32.608;-117.032;2023-04-19T01:59:26;99322.40;;;26.61;35.92
60646;BME280;46462;32.608;-117.032;2023-04-19T02:01:56;99327.42;;;26.62;35.87
60646;BME280;46462;32.608;-117.032;2023-04-19T02:04:27;99331.79;;;26.61;35.88
60646;BME280;46462;32.608;-117.032;2023-04-19T02:06:58;99334.92;;;26.62;35.91
60646;BME280;46462;32.608;-117.032;2023-04-19T02:09:28;99334.39;;;26.61;35.95
60646;BME280;46462;32.608;-117.032;2023-04-19T02:11:59;99339.13;;;26.62;35.92
60646;BME280;46462;32.608;-117.032;2023-04-19T02:14:30;99342.25;;;26.61;35.92
60646;BME280;46462;32.608;-117.032;2023-04-19T02:17:00;99340.80;;;26.61;35.93
60646;BME280;46462;32.608;-117.032;2023-04-19T02:19:31;99345.70;;;26.63;35.84
60646;BME280;46462;32.608;-117.032;2023-04-19T02:22:01;99348.02;;;26.68;35.78
60646;BME280;46462;32.608;-117.032;2023-04-19T02:24:32;99355.05;;;26.68;35.81
60646;BME280;46462;32.608;-117.032;2023-04-19T02:27:03;99358.12;;;26.72;35.75
60646;BME280;46462;32.608;-117.032;2023-04-19T02:29:33;99358.44;;;26.70;35.76
60646;BME280;46462;32.608;-117.032;2023-04-19T02:32:04;99362.26;;;26.73;35.78
60646;BME280;46462;32.608;-117.032;2023-04-19T02:34:35;99368.48;;;26.60;36.02
60646;BME280;46462;32.608;-117.032;2023-04-19T02:37:06;99381.17;;;26.61;36.00
60646;BME280;46462;32.608;-117.032;2023-04-19T02:39:36;99387.99;;;26.61;36.02
60646;BME280;46462;32.608;-117.032;2023-04-19T02:42:07;99384.00;;;26.60;36.04
60646;BME280;46462;32.608;-117.032;2023-04-19T02:44:37;99385.30;;;26.62;36.00
60646;BME280;46462;32.608;-117.032;2023-04-19T02:47:08;99388.81;;;26.64;35.90
60646;BME280;46462;32.608;-117.032;2023-04-19T02:49:39;99390.83;;;26.64;35.91
60646;BME280;46462;32.608;-117.032;2023-04-19T02:52:09;99393.97;;;26.67;35.90
60646;BME280;46462;32.608;-117.032;2023-04-19T02:54:39;99395.15;;;26.69;35.89
60646;BME280;46462;32.608;-117.032;2023-04-19T02:57:10;99397.72;;;26.68;35.91
60646;BME280;46462;32.608;-117.032;2023-04-19T02:59:40;99401.99;;;26.65;35.97
60646;BME280;46462;32.608;-117.032;2023-04-19T03:02:11;99402.16;;;26.68;35.91
60646;BME280;46462;32.608;-117.032;2023-04-19T03:04:42;99406.14;;;26.68;35.89
60646;BME280;46462;32.608;-117.032;2023-04-19T03:07:13;99405.56;;;26.69;35.85
60646;BME280;46462;32.608;-117.032;2023-04-19T03:09:43;99405.97;;;26.68;35.82
60646;BME280;46462;32.608;-117.032;2023-04-19T03:12:14;99406.92;;;26.68;35.92
60646;BME280;46462;32.608;-117.032;2023-04-19T03:14:45;99413.11;;;26.64;35.97
60646;BME280;46462;32.608;-117.032;2023-04-19T03:17:15;99411.37;;;26.66;35.92
60646;BME280;46462;32.608;-117.032;2023-04-19T03:19:46;99413.15;;;26.62;35.99
60646;BME280;46462;32.608;-117.032;2023-04-19T03:22:17;99411.75;;;26.61;35.96
60646;BME280;46462;32.608;-117.032;2023-04-19T03:24:47;99410.50;;;26.53;36.11
60646;BME280;46462;32.608;-117.032;2023-04-19T03:27:18;99418.92;;;26.49;36.17
60646;BME280;46462;32.608;-117.032;2023-04-19T03:29:49;99422.62;;;26.44;36.25
60646;BME280;46462;32.608;-117.032;2023-04-19T03:32:20;99424.62;;;26.42;36.27
60646;BME280;46462;32.608;-117.032;2023-04-19T03:34:50;99428.50;;;26.45;36.21
60646;BME280;46462;32.608;-117.032;2023-04-19T03:37:21;99435.12;;;26.48;36.12
60646;BME280;46462;32.608;-117.032;2023-04-19T03:39:51;99438.04;;;26.41;36.22
60646;BME280;46462;32.608;-117.032;2023-04-19T03:42:22;99440.77;;;26.43;36.16
60646;BME280;46462;32.608;-117.032;2023-04-19T03:44:53;99444.13;;;26.43;39.09
60646;BME280;46462;32.608;-117.032;2023-04-19T03:47:23;99450.19;;;26.53;40.20
60646;BME280;46462;32.608;-117.032;2023-04-19T03:49:54;99456.67;;;26.42;43.89
60646;BME280;46462;32.608;-117.032;2023-04-19T03:52:25;99462.35;;;26.52;46.01
60646;BME280;46462;32.608;-117.032;2023-04-19T03:54:55;99462.59;;;26.41;45.02
60646;BME280;46462;32.608;-117.032;2023-04-19T03:57:26;99467.72;;;26.43;44.02
60646;BME280;46462;32.608;-117.032;2023-04-19T03:59:57;99473.86;;;26.42;43.54
60646;BME280;46462;32.608;-117.032;2023-04-19T04:02:28;99476.67;;;26.44;43.07
60646;BME280;46462;32.608;-117.032;2023-04-19T04:07:29;99488.67;;;26.50;42.01
60646;BME280;46462;32.608;-117.032;2023-04-19T04:10:00;99490.00;;;26.45;42.17
60646;BME280;46462;32.608;-117.032;2023-04-19T04:12:30;99492.77;;;26.39;41.84
60646;BME280;46462;32.608;-117.032;2023-04-19T04:15:01;99496.84;;;26.32;41.78
60646;BME280;46462;32.608;-117.032;2023-04-19T04:17:32;99499.80;;;26.32;41.36
60646;BME280;46462;32.608;-117.032;2023-04-19T04:20:07;99502.35;;;26.28;40.99
60646;BME280;46462;32.608;-117.032;2023-04-19T04:22:40;99506.78;;;26.29;41.13
60646;BME280;46462;32.608;-117.032;2023-04-19T04:25:08;99507.75;;;26.29;40.87
60646;BME280;46462;32.608;-117.032;2023-04-19T04:27:37;99511.37;;;26.25;40.92
60646;BME280;46462;32.608;-117.032;2023-04-19T04:30:08;99512.39;;;26.20;40.84
60646;BME280;46462;32.608;-117.032;2023-04-19T04:32:38;99515.96;;;26.13;40.93
60646;BME280;46462;32.608;-117.032;2023-04-19T04:35:10;99516.12;;;26.03;41.14
60646;BME280;46462;32.608;-117.032;2023-04-19T04:37:39;99524.00;;;26.02;41.07
60646;BME280;46462;32.608;-117.032;2023-04-19T04:40:11;99530.16;;;25.98;41.10
60646;BME280;46462;32.608;-117.032;2023-04-19T04:42:41;99530.88;;;26.00;41.01
60646;BME280;46462;32.608;-117.032;2023-04-19T04:45:11;99533.01;;;25.94;41.01
60646;BME280;46462;32.608;-117.032;2023-04-19T04:47:42;99532.80;;;25.96;40.79
60646;BME280;46462;32.608;-117.032;2023-04-19T04:50:12;99529.30;;;25.94;40.66
60646;BME280;46462;32.608;-117.032;2023-04-19T04:52:43;99528.96;;;25.94;40.50
60646;BME280;46462;32.608;-117.032;2023-04-19T04:55:14;99530.59;;;25.90;40.55
60646;BME280;46462;32.608;-117.032;2023-04-19T04:57:45;99531.13;;;25.91;40.42
60646;BME280;46462;32.608;-117.032;2023-04-19T05:00:16;99529.39;;;25.88;40.39
60646;BME280;46462;32.608;-117.032;2023-04-19T05:02:46;99533.26;;;25.86;40.31
60646;BME280;46462;32.608;-117.032;2023-04-19T05:05:17;99535.06;;;25.84;40.22
60646;BME280;46462;32.608;-117.032;2023-04-19T05:07:48;99535.53;;;25.86;40.05
60646;BME280;46462;32.608;-117.032;2023-04-19T05:10:18;99536.36;;;25.82;40.06
60646;BME280;46462;32.608;-117.032;2023-04-19T05:12:49;99539.32;;;25.84;39.89
60646;BME280;46462;32.608;-117.032;2023-04-19T05:15:20;99538.86;;;25.81;39.88
60646;BME280;46462;32.608;-117.032;2023-04-19T05:17:50;99538.97;;;25.77;39.89
60646;BME280;46462;32.608;-117.032;2023-04-19T05:20:21;99536.22;;;25.75;39.80
60646;BME280;46462;32.608;-117.032;2023-04-19T05:22:56;99534.80;;;25.72;39.71
60646;BME280;46462;32.608;-117.032;2023-04-19T05:25:22;99537.67;;;25.71;39.71
60646;BME280;46462;32.608;-117.032;2023-04-19T05:27:53;99540.73;;;25.74;39.55
60646;BME280;46462;32.608;-117.032;2023-04-19T05:30:23;99542.24;;;25.75;39.42
60646;BME280;46462;32.608;-117.032;2023-04-19T05:32:55;99538.83;;;25.78;39.26
60646;BME280;46462;32.608;-117.032;2023-04-19T05:35:25;99539.65;;;25.73;39.29
60646;BME280;46462;32.608;-117.032;2023-04-19T05:37:56;99537.69;;;25.70;39.28
60646;BME280;46462;32.608;-117.032;2023-04-19T05:40:26;99535.85;;;25.70;39.23
60646;BME280;46462;32.608;-117.032;2023-04-19T05:42:57;99541.53;;;25.68;39.16
60646;BME280;46462;32.608;-117.032;2023-04-19T05:45:28;99543.69;;;25.67;39.15
60646;BME280;46462;32.608;-117.032;2023-04-19T05:47:58;99546.64;;;25.69;39.01
60646;BME280;46462;32.608;-117.032;2023-04-19T05:50:29;99546.74;;;25.66;39.00
60646;BME280;46462;32.608;-117.032;2023-04-19T05:53:00;99546.48;;;25.69;38.85
60646;BME280;46462;32.608;-117.032;2023-04-19T05:55:30;99546.98;;;25.68;38.81
60646;BME280;46462;32.608;-117.032;2023-04-19T05:58:01;99547.35;;;25.72;38.64
60646;BME280;46462;32.608;-117.032;2023-04-19T06:00:31;99547.94;;;25.71;38.59
60646;BME280;46462;32.608;-117.032;2023-04-19T06:03:02;99544.56;;;25.73;38.47
60646;BME280;46462;32.608;-117.032;2023-04-19T06:05:33;99543.18;;;25.66;38.56
60646;BME280;46462;32.608;-117.032;2023-04-19T06:08:04;99541.18;;;25.65;38.50
60646;BME280;46462;32.608;-117.032;2023-04-19T06:10:35;99540.71;;;25.58;38.54
60646;BME280;46462;32.608;-117.032;2023-04-19T06:13:05;99540.70;;;25.56;38.53
60646;BME280;46462;32.608;-117.032;2023-04-19T06:15:36;99539.66;;;25.57;38.46
60646;BME280;46462;32.608;-117.032;2023-04-19T06:18:06;99536.06;;;25.55;38.41
60646;BME280;46462;32.608;-117.032;2023-04-19T06:20:38;99538.45;;;25.58;38.28
60646;BME280;46462;32.608;-117.032;2023-04-19T06:23:08;99541.07;;;25.58;38.22
60646;BME280;46462;32.608;-117.032;2023-04-19T06:25:39;99539.67;;;25.50;38.32
60646;BME280;46462;32.608;-117.032;2023-04-19T06:28:09;99535.87;;;25.48;38.29
60646;BME280;46462;32.608;-117.032;2023-04-19T06:30:40;99533.66;;;25.43;38.32
60646;BME280;46462;32.608;-117.032;2023-04-19T06:33:11;99536.35;;;25.46;38.23
60646;BME280;46462;32.608;-117.032;2023-04-19T06:35:41;99534.28;;;25.44;38.20
60646;BME280;46462;32.608;-117.032;2023-04-19T06:38:12;99533.11;;;25.38;38.24
60646;BME280;46462;32.608;-117.032;2023-04-19T06:40:43;99532.74;;;25.36;38.25
60646;BME280;46462;32.608;-117.032;2023-04-19T06:43:14;99528.33;;;25.37;38.16
60646;BME280;46462;32.608;-117.032;2023-04-19T06:45:44;99522.85;;;25.43;38.00
60646;BME280;46462;32.608;-117.032;2023-04-19T06:48:15;99527.69;;;25.47;37.86
60646;BME280;46462;32.608;-117.032;2023-04-19T06:50:46;99530.27;;;25.36;38.05
60646;BME280;46462;32.608;-117.032;2023-04-19T06:53:17;99530.55;;;25.34;38.03
60646;BME280;46462;32.608;-117.032;2023-04-19T06:55:47;99533.96;;;25.31;38.03
60646;BME280;46462;32.608;-117.032;2023-04-19T06:58:18;99533.21;;;25.29;38.02
60646;BME280;46462;32.608;-117.032;2023-04-19T07:00:48;99529.99;;;25.30;38.00
60646;BME280;46462;32.608;-117.032;2023-04-19T07:03:19;99532.66;;;25.34;37.84
60646;BME280;46462;32.608;-117.032;2023-04-19T07:05:50;99534.00;;;25.34;37.81
60646;BME280;46462;32.608;-117.032;2023-04-19T07:08:21;99531.69;;;25.31;37.83
60646;BME280;46462;32.608;-117.032;2023-04-19T07:10:51;99531.61;;;25.30;37.80
60646;BME280;46462;32.608;-117.032;2023-04-19T07:13:22;99530.55;;;25.32;37.74
60646;BME280;46462;32.608;-117.032;2023-04-19T07:15:53;99529.20;;;25.32;37.71
60646;BME280;46462;32.608;-117.032;2023-04-19T07:18:23;99528.05;;;25.33;37.60
60646;BME280;46462;32.608;-117.032;2023-04-19T07:20:54;99529.14;;;25.29;37.66
60646;BME280;46462;32.608;-117.032;2023-04-19T07:23:25;99527.94;;;25.35;37.46
60646;BME280;46462;32.608;-117.032;2023-04-19T07:25:56;99525.68;;;25.34;37.47
60646;BME280;46462;32.608;-117.032;2023-04-19T07:28:28;99520.24;;;25.38;37.31
60646;BME280;46462;32.608;-117.032;2023-04-19T07:30:57;99518.29;;;25.37;37.30
60646;BME280;46462;32.608;-117.032;2023-04-19T07:33:28;99522.56;;;25.39;37.21
60646;BME280;46462;32.608;-117.032;2023-04-19T07:35:59;99527.83;;;25.33;37.33
60646;BME280;46462;32.608;-117.032;2023-04-19T07:38:29;99530.15;;;25.35;37.24
60646;BME280;46462;32.608;-117.032;2023-04-19T07:41:00;99527.93;;;25.35;37.25
60646;BME280;46462;32.608;-117.032;2023-04-19T07:43:31;99529.27;;;25.33;37.25
60646;BME280;46462;32.608;-117.032;2023-04-19T07:46:07;99526.43;;;25.32;37.22
60646;BME280;46462;32.608;-117.032;2023-04-19T07:48:32;99523.66;;;25.34;37.15
60646;BME280;46462;32.608;-117.032;2023-04-19T07:51:08;99525.26;;;25.29;37.25
60646;BME280;46462;32.608;-117.032;2023-04-19T07:53:33;99521.08;;;25.27;37.21
60646;BME280;46462;32.608;-117.032;2023-04-19T07:56:05;99522.24;;;25.30;37.15
60646;BME280;46462;32.608;-117.032;2023-04-19T07:58:35;99525.29;;;25.29;37.09
60646;BME280;46462;32.608;-117.032;2023-04-19T08:01:05;99524.16;;;25.27;37.13
60646;BME280;46462;32.608;-117.032;2023-04-19T08:03:36;99524.36;;;25.30;37.02
60646;BME280;46462;32.608;-117.032;2023-04-19T08:06:07;99525.04;;;25.27;37.09
60646;BME280;46462;32.608;-117.032;2023-04-19T08:08:38;99524.75;;;25.19;37.20
60646;BME280;46462;32.608;-117.032;2023-04-19T08:11:08;99521.61;;;25.24;37.10
60646;BME280;46462;32.608;-117.032;2023-04-19T08:13:39;99521.18;;;25.22;37.09
60646;BME280;46462;32.608;-117.032;2023-04-19T08:16:10;99517.27;;;25.29;36.88
60646;BME280;46462;32.608;-117.032;2023-04-19T08:18:41;99516.56;;;25.22;36.97
60646;BME280;46462;32.608;-117.032;2023-04-19T08:21:11;99515.99;;;25.15;37.09
60646;BME280;46462;32.608;-117.032;2023-04-19T08:23:42;99514.55;;;25.22;36.96
60646;BME280;46462;32.608;-117.032;2023-04-19T08:26:13;99510.52;;;25.21;36.94
60646;BME280;46462;32.608;-117.032;2023-04-19T08:28:43;99511.00;;;25.14;37.08
60646;BME280;46462;32.608;-117.032;2023-04-19T08:31:14;99512.41;;;25.24;36.88
60646;BME280;46462;32.608;-117.032;2023-04-19T08:33:45;99509.51;;;25.26;36.83
60646;BME280;46462;32.608;-117.032;2023-04-19T08:36:15;99505.21;;;25.14;36.99
60646;BME280;46462;32.608;-117.032;2023-04-19T08:38:46;99506.42;;;25.21;36.82
60646;BME280;46462;32.608;-117.032;2023-04-19T08:41:18;99505.86;;;25.15;36.91
60646;BME280;46462;32.608;-117.032;2023-04-19T08:43:51;99505.09;;;25.15;36.85
60646;BME280;46462;32.608;-117.032;2023-04-19T08:46:18;99506.12;;;25.20;36.70
60646;BME280;46462;32.608;-117.032;2023-04-19T08:48:50;99506.12;;;25.13;36.80
60646;BME280;46462;32.608;-117.032;2023-04-19T08:51:20;99502.41;;;25.17;36.70
60646;BME280;46462;32.608;-117.032;2023-04-19T08:53:51;99502.25;;;25.11;36.78
60646;BME280;46462;32.608;-117.032;2023-04-19T08:56:22;99498.20;;;25.06;36.84
60646;BME280;46462;32.608;-117.032;2023-04-19T08:58:52;99498.88;;;25.17;36.62
60646;BME280;46462;32.608;-117.032;2023-04-19T09:01:23;99496.61;;;25.11;36.68
60646;BME280;46462;32.608;-117.032;2023-04-19T09:03:53;99489.19;;;25.06;36.75
60646;BME280;46462;32.608;-117.032;2023-04-19T09:06:24;99487.34;;;25.10;36.66
60646;BME280;46462;32.608;-117.032;2023-04-19T09:14:06;99488.86;;;25.02;36.67
60646;BME280;46462;32.608;-117.032;2023-04-19T09:16:27;99485.48;;;25.09;36.50
60646;BME280;46462;32.608;-117.032;2023-04-19T09:18:58;99487.62;;;25.03;36.64
60646;BME280;46462;32.608;-117.032;2023-04-19T09:21:29;99485.98;;;24.98;36.72
60646;BME280;46462;32.608;-117.032;2023-04-19T09:24:00;99485.83;;;25.01;36.64
60646;BME280;46462;32.608;-117.032;2023-04-19T09:26:30;99483.64;;;24.91;36.82
60646;BME280;46462;32.608;-117.032;2023-04-19T09:29:02;99482.59;;;24.94;36.70
60646;BME280;46462;32.608;-117.032;2023-04-19T09:31:33;99480.03;;;25.04;36.45
60646;BME280;46462;32.608;-117.032;2023-04-19T09:36:33;99477.24;;;24.91;36.67
60646;BME280;46462;32.608;-117.032;2023-04-19T09:39:04;99474.27;;;24.97;36.54
60646;BME280;46462;32.608;-117.032;2023-04-19T09:41:35;99476.49;;;24.99;36.49
60646;BME280;46462;32.608;-117.032;2023-04-19T09:44:09;99477.02;;;24.91;36.54
60646;BME280;46462;32.608;-117.032;2023-04-19T09:46:36;99476.19;;;24.91;36.51
60646;BME280;46462;32.608;-117.032;2023-04-19T09:51:40;99478.59;;;24.91;36.43
60646;BME280;46462;32.608;-117.032;2023-04-19T09:54:10;99478.70;;;24.78;36.70
60646;BME280;46462;32.608;-117.032;2023-04-19T09:56:39;99482.35;;;24.85;36.54
60646;BME280;46462;32.608;-117.032;2023-04-19T09:59:10;99485.21;;;24.91;36.42
60646;BME280;46462;32.608;-117.032;2023-04-19T10:01:43;99486.06;;;24.81;36.55
60646;BME280;46462;32.608;-117.032;2023-04-19T10:04:13;99486.35;;;24.86;36.44
60646;BME280;46462;32.608;-117.032;2023-04-19T10:06:42;99484.28;;;24.88;36.37
60646;BME280;46462;32.608;-117.032;2023-04-19T10:09:13;99482.13;;;24.88;36.31
60646;BME280;46462;32.608;-117.032;2023-04-19T10:11:47;99479.04;;;24.85;36.36
60646;BME280;46462;32.608;-117.032;2023-04-19T10:14:15;99479.49;;;24.76;36.47
60646;BME280;46462;32.608;-117.032;2023-04-19T10:16:45;99482.30;;;24.77;36.44
60646;BME280;46462;32.608;-117.032;2023-04-19T10:19:18;99484.41;;;24.72;36.49
60646;BME280;46462;32.608;-117.032;2023-04-19T10:21:48;99481.60;;;24.73;36.43
60646;BME280;46462;32.608;-117.032;2023-04-19T10:24:17;99483.62;;;24.73;36.40
60646;BME280;46462;32.608;-117.032;2023-04-19T10:31:51;99475.09;;;24.72;36.35
60646;BME280;46462;32.608;-117.032;2023-04-19T10:36:51;99471.96;;;24.67;36.41
60646;BME280;46462;32.608;-117.032;2023-04-19T10:41:56;99476.07;;;24.61;36.45
60646;BME280;46462;32.608;-117.032;2023-04-19T10:44:23;99478.55;;;24.59;36.48
60646;BME280;46462;32.608;-117.032;2023-04-19T10:46:53;99481.62;;;24.64;36.33
60646;BME280;46462;32.608;-117.032;2023-04-19T10:49:24;99481.84;;;24.63;36.30
60646;BME280;46462;32.608;-117.032;2023-04-19T10:51:55;99481.02;;;24.61;36.32
60646;BME280;46462;32.608;-117.032;2023-04-19T10:54:31;99481.75;;;24.56;36.39
60646;BME280;46462;32.608;-117.032;2023-04-19T10:56:58;99481.23;;;24.54;36.35
60646;BME280;46462;32.608;-117.032;2023-04-19T10:59:29;99478.07;;;24.51;36.42
60646;BME280;46462;32.608;-117.032;2023-04-19T11:01:59;99475.72;;;24.51;36.39
60646;BME280;46462;32.608;-117.032;2023-04-19T11:07:02;99477.27;;;24.54;36.27
60646;BME280;46462;32.608;-117.032;2023-04-19T11:09:32;99478.25;;;24.54;36.21
60646;BME280;46462;32.608;-117.032;2023-04-19T11:12:02;99473.27;;;24.52;36.22
60646;BME280;46462;32.608;-117.032;2023-04-19T11:14:34;99470.15;;;24.57;36.14
60646;BME280;46462;32.608;-117.032;2023-04-19T11:17:13;99471.15;;;24.48;36.22
60646;BME280;46462;32.608;-117.032;2023-04-19T11:19:33;99478.37;;;24.50;36.14
60646;BME280;46462;32.608;-117.032;2023-04-19T11:22:04;99479.08;;;24.49;36.11
60646;BME280;46462;32.608;-117.032;2023-04-19T11:24:35;99475.62;;;24.49;36.10
60646;BME280;46462;32.608;-117.032;2023-04-19T11:27:08;99476.09;;;24.47;36.06
60646;BME280;46462;32.608;-117.032;2023-04-19T11:29:36;99478.55;;;24.43;36.13
60646;BME280;46462;32.608;-117.032;2023-04-19T11:32:07;99481.63;;;24.39;36.22
60646;BME280;46462;32.608;-117.032;2023-04-19T11:34:39;99481.64;;;24.40;36.14
60646;BME280;46462;32.608;-117.032;2023-04-19T11:37:09;99485.23;;;24.40;36.09
60646;BME280;46462;32.608;-117.032;2023-04-19T11:39:45;99488.45;;;24.36;36.17
60646;BME280;46462;32.608;-117.032;2023-04-19T11:42:18;99486.64;;;24.39;36.07
60646;BME280;46462;32.608;-117.032;2023-04-19T11:44:46;99486.96;;;24.38;36.05
60646;BME280;46462;32.608;-117.032;2023-04-19T11:47:11;99488.39;;;24.37;36.05
60646;BME280;46462;32.608;-117.032;2023-04-19T11:49:42;99487.97;;;24.29;36.16
60646;BME280;46462;32.608;-117.032;2023-04-19T11:52:19;99479.38;;;24.37;35.97
60646;BME280;46462;32.608;-117.032;2023-04-19T11:54:44;99479.58;;;24.29;36.07
60646;BME280;46462;32.608;-117.032;2023-04-19T11:57:14;99479.55;;;24.24;36.14
60646;BME280;46462;32.608;-117.032;2023-04-19T12:02:17;99477.78;;;24.25;36.12
60646;BME280;46462;32.608;-117.032;2023-04-19T12:04:47;99480.00;;;24.19;36.16
60646;BME280;46462;32.608;-117.032;2023-04-19T12:07:18;99483.39;;;24.18;36.15
60646;BME280;46462;32.608;-117.032;2023-04-19T12:09:48;99484.33;;;24.16;36.12
60646;BME280;46462;32.608;-117.032;2023-04-19T12:14:52;99488.32;;;24.03;36.31
60646;BME280;46462;32.608;-117.032;2023-04-19T12:17:21;99492.61;;;24.13;36.13
60646;BME280;46462;32.608;-117.032;2023-04-19T12:19:51;99488.97;;;24.06;36.20
60646;BME280;46462;32.608;-117.032;2023-04-19T12:22:22;99488.42;;;24.10;36.10
60646;BME280;46462;32.608;-117.032;2023-04-19T12:24:53;99488.22;;;24.14;36.04
60646;BME280;46462;32.608;-117.032;2023-04-19T12:27:24;99487.76;;;24.09;36.10
60646;BME280;46462;32.608;-117.032;2023-04-19T12:29:54;99494.36;;;24.05;36.12
60646;BME280;46462;32.608;-117.032;2023-04-19T12:32:25;99490.29;;;24.06;36.11
60646;BME280;46462;32.608;-117.032;2023-04-19T12:34:56;99494.40;;;24.03;36.15
60646;BME280;46462;32.608;-117.032;2023-04-19T12:37:27;99494.51;;;24.01;36.12
60646;BME280;46462;32.608;-117.032;2023-04-19T12:39:57;99489.67;;;24.01;36.11
60646;BME280;46462;32.608;-117.032;2023-04-19T12:42:28;99487.28;;;24.02;36.08
60646;BME280;46462;32.608;-117.032;2023-04-19T12:44:59;99491.77;;;23.98;36.13
60646;BME280;46462;32.608;-117.032;2023-04-19T12:47:30;99488.95;;;23.99;36.11
60646;BME280;46462;32.608;-117.032;2023-04-19T12:50:00;99491.85;;;24.01;36.01
60646;BME280;46462;32.608;-117.032;2023-04-19T12:52:31;99493.41;;;24.02;35.94
60646;BME280;46462;32.608;-117.032;2023-04-19T12:55:02;99497.91;;;24.00;35.97
60646;BME280;46462;32.608;-117.032;2023-04-19T12:57:33;99500.98;;;24.07;35.84
60646;BME280;46462;32.608;-117.032;2023-04-19T13:00:09;99506.56;;;24.02;35.88
60646;BME280;46462;32.608;-117.032;2023-04-19T13:02:38;99509.15;;;24.01;35.86
60646;BME280;46462;32.608;-117.032;2023-04-19T13:05:08;99510.23;;;23.98;35.86
60646;BME280;46462;32.608;-117.032;2023-04-19T13:07:38;99512.57;;;23.95;35.93
60646;BME280;46462;32.608;-117.032;2023-04-19T13:10:10;99515.84;;;23.87;36.05
60646;BME280;46462;32.608;-117.032;2023-04-19T13:12:40;99518.94;;;23.83;36.11
60646;BME280;46462;32.608;-117.032;2023-04-19T13:15:11;99514.76;;;23.88;35.98
60646;BME280;46462;32.608;-117.032;2023-04-19T13:17:41;99513.31;;;23.88;35.97